Time;durP1;ratioP1;P1;durP2;ratioP2;P2;SDS_P1;SDS_P2;PMS_P1;PMS_P2;Temp;Humidity;BMP_temperature;BMP_pressure;BME280_temperature;BME280_humidity;BME280_pressure;Samples;Min_cycle;Max_cycle;Signal;HPM_P1;HPM_P2
2023/12/05 00:01:12;;;;;;;16.77;11.82;;;6.40;99.90;;;;;;5012750;28;20049;-66
2023/12/05 00:03:38;;;;;;;17.95;12.48;;;6.50;99.90;;;;;;5027089;28;20053;-66
2023/12/05 00:06:10;;;;;;;23.60;12.48;;;6.50;99.90;;;;;;5029613;28;20045;-66
2023/12/05 00:08:37;;;;;;;18.17;12.13;;;6.40;99.90;;;;;;5029536;28;20049;-66
2023/12/05 00:11:05;;;;;;;22.20;12.50;;;6.40;99.90;;;;;;5012072;28;20041;-65
2023/12/05 00:13:32;;;;;;;18.90;11.90;;;6.40;99.90;;;;;;5028932;28;20449;-66
2023/12/05 00:15:59;;;;;;;16.83;11.60;;;6.40;99.90;;;;;;5027014;28;20084;-66
2023/12/05 00:18:25;;;;;;;18.80;12.73;;;6.40;99.90;;;;;;5009891;28;20114;-66
2023/12/05 00:20:52;;;;;;;18.38;12.23;;;6.40;99.90;;;;;;5029600;28;20041;-65
2023/12/05 00:23:19;;;;;;;22.65;13.13;;;6.40;99.90;;;;;;5023462;28;20299;-66
2023/12/05 00:25:46;;;;;;;21.55;12.98;;;6.40;99.90;;;;;;5023769;28;20456;-66
2023/12/05 00:28:13;;;;;;;19.25;12.00;;;6.40;99.90;;;;;;5024048;28;20136;-66
2023/12/05 00:30:40;;;;;;;16.05;10.35;;;6.40;99.90;;;;;;5029592;28;20481;-65
2023/12/05 00:33:07;;;;;;;17.80;12.10;;;6.30;99.90;;;;;;5028345;28;20064;-65
2023/12/05 00:35:33;;;;;;;22.48;11.02;;;6.30;99.90;;;;;;5029793;28;20045;-66
2023/12/05 00:38:00;;;;;;;16.48;10.40;;;6.30;99.90;;;;;;5029644;28;20049;-66
2023/12/05 00:40:29;;;;;;;16.25;11.25;;;6.30;99.90;;;;;;5020178;28;20211;-66
2023/12/05 00:42:56;;;;;;;14.75;9.55;;;6.30;99.90;;;;;;5029555;28;20060;-65
2023/12/05 00:45:23;;;;;;;14.55;10.00;;;6.30;99.90;;;;;;5029317;28;20049;-65
2023/12/05 00:47:51;;;;;;;14.30;9.00;;;6.30;99.90;;;;;;5029519;28;20057;-65
2023/12/05 00:50:18;;;;;;;14.88;9.82;;;6.20;99.90;;;;;;5024665;28;20242;-65
2023/12/05 00:52:49;;;;;;;13.25;8.60;;;6.20;99.90;;;;;;5030066;28;20049;-65
2023/12/05 00:55:16;;;;;;;14.52;10.13;;;6.20;99.90;;;;;;5031934;28;20045;-66
2023/12/05 00:57:43;;;;;;;14.25;9.15;;;6.20;99.90;;;;;;5029325;28;20053;-65
2023/12/05 01:00:11;;;;;;;11.18;7.97;;;6.20;99.90;;;;;;5028804;28;20076;-66
2023/12/05 01:02:38;;;;;;;11.52;8.20;;;6.20;99.90;;;;;;5029707;28;20045;-65
2023/12/05 01:05:08;;;;;;;13.85;8.55;;;6.20;99.90;;;;;;5028327;28;20046;-65
2023/12/05 01:07:36;;;;;;;12.43;8.13;;;6.20;99.90;;;;;;5029899;28;20310;-65
2023/12/05 01:10:03;;;;;;;10.32;7.78;;;6.30;99.90;;;;;;5028446;28;20045;-65
2023/12/05 01:12:30;;;;;;;10.23;7.30;;;6.20;99.90;;;;;;5029222;28;20056;-65
2023/12/05 01:14:57;;;;;;;11.65;8.25;;;6.20;99.90;;;;;;5027143;28;20048;-65
2023/12/05 01:17:25;;;;;;;10.60;8.15;;;6.20;99.90;;;;;;5029982;28;20128;-65
2023/12/05 01:19:52;;;;;;;10.07;7.28;;;6.20;99.90;;;;;;5030785;28;20103;-64
2023/12/05 01:22:18;;;;;;;9.52;6.95;;;6.20;99.90;;;;;;5028898;28;20076;-65
2023/12/05 01:24:55;;;;;;;10.93;7.38;;;6.10;99.90;;;;;;5011146;28;20420;-65
2023/12/05 01:27:23;;;;;;;9.60;7.25;;;6.10;99.90;;;;;;5024642;28;20107;-65
2023/12/05 01:29:50;;;;;;;12.48;7.25;;;6.20;99.90;;;;;;4678888;28;10000672;-65
2023/12/05 01:32:17;;;;;;;12.27;7.43;;;6.20;99.90;;;;;;5024851;28;20065;-65
2023/12/05 01:34:43;;;;;;;9.05;6.85;;;6.20;99.90;;;;;;5003423;28;20041;-65
2023/12/05 01:37:10;;;;;;;9.23;6.40;;;6.20;99.90;;;;;;5022403;28;20053;-65
2023/12/05 01:39:37;;;;;;;10.63;6.55;;;6.10;99.90;;;;;;5028188;28;20041;-65
2023/12/05 01:42:04;;;;;;;9.68;7.88;;;6.10;99.90;;;;;;5010922;28;20060;-64
2023/12/05 01:44:31;;;;;;;9.75;7.15;;;6.20;99.90;;;;;;5028278;28;20053;-64
2023/12/05 01:46:58;;;;;;;10.23;7.72;;;6.10;99.90;;;;;;5028060;28;20049;-65
2023/12/05 01:49:26;;;;;;;9.40;7.20;;;6.20;99.90;;;;;;5027595;28;20085;-64
2023/12/05 01:51:56;;;;;;;9.35;6.63;;;6.10;99.90;;;;;;5007982;28;20042;-65
2023/12/05 01:54:23;;;;;;;7.65;6.03;;;6.10;99.90;;;;;;4988468;28;20526;-64
2023/12/05 01:56:50;;;;;;;7.82;5.90;;;6.10;99.90;;;;;;5026713;28;20068;-64
2023/12/05 01:59:17;;;;;;;9.85;7.15;;;6.10;99.90;;;;;;5010488;28;20484;-64
2023/12/05 02:01:44;;;;;;;8.30;6.38;;;6.10;99.90;;;;;;5010197;28;20095;-64
2023/12/05 02:04:11;;;;;;;7.00;5.28;;;6.10;99.90;;;;;;5010165;28;20050;-65
2023/12/05 02:06:38;;;;;;;7.28;5.40;;;6.10;99.90;;;;;;5027175;28;20042;-65
2023/12/05 02:09:05;;;;;;;7.07;5.35;;;6.10;99.90;;;;;;5027510;28;20077;-64
2023/12/05 02:11:32;;;;;;;7.90;5.28;;;6.00;99.90;;;;;;5009969;28;20396;-64
2023/12/05 02:13:59;;;;;;;8.20;5.60;;;6.10;99.90;;;;;;5009727;28;20045;-65
2023/12/05 02:16:50;;;;;;;7.10;4.43;;;6.10;99.90;;;;;;5009873;28;20041;-65
2023/12/05 02:19:39;;;;;;;6.75;5.15;;;6.10;99.90;;;;;;5017149;28;20206;-65
2023/12/05 02:22:26;;;;;;;6.55;5.30;;;6.10;99.90;;;;;;5009148;28;20061;-65
2023/12/05 02:25:17;;;;;;;7.53;5.30;;;6.10;99.90;;;;;;5011695;28;20139;-65
2023/12/05 02:27:44;;;;;;;8.45;5.65;;;6.10;99.90;;;;;;4981543;28;20046;-66
2023/12/05 02:30:14;;;;;;;9.50;5.32;;;6.10;99.90;;;;;;5027467;28;20333;-65
2023/12/05 02:32:41;;;;;;;9.57;6.63;;;6.10;99.90;;;;;;5027037;28;20069;-66
2023/12/05 02:35:10;;;;;;;6.88;4.88;;;6.10;99.90;;;;;;5027067;28;20088;-66
2023/12/05 02:37:59;;;;;;;5.35;4.57;;;6.10;99.90;;;;;;5027469;28;20045;-65
2023/12/05 02:40:34;;;;;;;7.55;5.38;;;6.20;99.90;;;;;;5012338;28;20045;-65
2023/12/05 02:43:03;;;;;;;6.55;5.20;;;6.20;99.90;;;;;;5027061;28;20041;-66
2023/12/05 02:45:30;;;;;;;6.07;4.72;;;6.20;99.90;;;;;;5010109;28;20400;-65
2023/12/05 02:47:58;;;;;;;6.75;5.32;;;6.20;99.90;;;;;;5007278;28;20448;-65
2023/12/05 02:50:26;;;;;;;7.35;4.90;;;6.20;99.90;;;;;;5009885;28;20056;-65
2023/12/05 02:52:53;;;;;;;5.20;4.13;;;6.20;99.90;;;;;;4990949;28;20046;-65
2023/12/05 02:55:19;;;;;;;7.32;5.57;;;6.20;99.90;;;;;;5027263;28;20050;-65
2023/12/05 02:57:46;;;;;;;7.47;4.68;;;6.20;99.90;;;;;;5025585;28;20049;-65
2023/12/05 03:00:13;;;;;;;6.05;4.95;;;6.20;99.90;;;;;;5027543;28;20053;-65
2023/12/05 03:02:40;;;;;;;6.97;5.15;;;6.20;99.90;;;;;;5027098;28;20041;-66
2023/12/05 03:05:07;;;;;;;8.15;5.50;;;6.20;99.90;;;;;;5025437;28;20045;-66
2023/12/05 03:07:34;;;;;;;9.63;6.22;;;6.10;99.90;;;;;;5007909;28;20510;-65
2023/12/05 03:10:01;;;;;;;7.75;5.50;;;6.20;99.90;;;;;;5027080;28;20707;-65
2023/12/05 03:12:28;;;;;;;7.65;5.55;;;6.10;99.90;;;;;;5009487;28;20042;-65
2023/12/05 03:14:55;;;;;;;6.32;5.47;;;6.10;99.90;;;;;;5026798;28;20075;-65
2023/12/05 03:17:22;;;;;;;18.35;6.03;;;6.10;99.90;;;;;;5009171;28;20104;-65
2023/12/05 03:19:49;;;;;;;9.88;6.07;;;6.10;99.90;;;;;;5026392;28;20293;-65
2023/12/05 03:22:16;;;;;;;6.90;5.45;;;6.20;99.90;;;;;;5026107;28;20385;-65
2023/12/05 03:24:43;;;;;;;8.50;6.35;;;6.20;99.90;;;;;;5029463;28;20047;-65
2023/12/05 03:27:10;;;;;;;7.70;5.25;;;6.20;99.90;;;;;;5031066;28;20054;-65
2023/12/05 03:29:37;;;;;;;7.65;5.65;;;6.10;99.90;;;;;;5024476;28;20460;-65
2023/12/05 03:32:04;;;;;;;7.32;5.90;;;6.10;99.90;;;;;;5027277;28;20111;-65
2023/12/05 03:34:31;;;;;;;7.85;6.35;;;6.10;99.90;;;;;;5025610;28;20132;-65
2023/12/05 03:36:58;;;;;;;7.95;6.65;;;6.10;99.90;;;;;;5027062;28;20124;-65
2023/12/05 03:39:24;;;;;;;9.63;6.18;;;6.10;99.90;;;;;;5008895;28;20132;-65
2023/12/05 03:41:51;;;;;;;9.93;6.43;;;6.10;99.90;;;;;;5022230;28;20053;-65
2023/12/05 03:44:18;;;;;;;9.32;6.85;;;6.10;99.90;;;;;;5027019;28;20041;-65
2023/12/05 03:46:45;;;;;;;7.85;6.05;;;6.10;99.90;;;;;;5027005;28;20049;-65
2023/12/05 03:49:12;;;;;;;8.90;6.30;;;6.10;99.90;;;;;;5026066;28;20149;-66
2023/12/05 03:51:39;;;;;;;9.15;5.75;;;6.10;99.90;;;;;;5028860;28;20045;-65
2023/12/05 03:54:07;;;;;;;7.72;6.32;;;6.10;99.90;;;;;;5028330;28;20520;-65
2023/12/05 03:56:34;;;;;;;11.90;6.57;;;6.10;99.90;;;;;;5030032;28;20053;-65
2023/12/05 03:59:00;;;;;;;10.48;6.75;;;6.10;99.90;;;;;;5011761;28;20421;-65
2023/12/05 04:01:27;;;;;;;7.43;6.18;;;6.10;99.90;;;;;;5029009;28;20177;-65
2023/12/05 04:03:54;;;;;;;10.43;7.72;;;6.10;99.90;;;;;;5029602;28;20087;-65
2023/12/05 04:06:22;;;;;;;10.05;7.63;;;6.20;99.90;;;;;;5025152;28;20405;-65
2023/12/05 04:08:49;;;;;;;10.13;7.60;;;6.20;99.90;;;;;;5030168;28;20080;-66
2023/12/05 04:11:16;;;;;;;9.27;7.07;;;6.10;99.90;;;;;;5029682;28;20050;-65
2023/12/05 04:13:43;;;;;;;10.55;7.32;;;6.10;99.90;;;;;;5030079;28;20053;-65
2023/12/05 04:16:10;;;;;;;12.05;6.78;;;6.20;99.90;;;;;;5028703;28;20451;-65
2023/12/05 04:18:37;;;;;;;12.73;7.68;;;6.20;99.90;;;;;;5028459;28;20072;-65
2023/12/05 04:21:04;;;;;;;9.50;7.07;;;6.20;99.90;;;;;;5029350;28;20151;-65
2023/12/05 04:23:31;;;;;;;10.65;8.07;;;6.20;99.90;;;;;;5025228;28;20049;-65
2023/12/05 04:25:58;;;;;;;9.88;8.20;;;6.20;99.90;;;;;;5012100;28;20445;-65
2023/12/05 04:28:25;;;;;;;11.18;7.90;;;6.20;99.90;;;;;;5011890;28;20100;-65
2023/12/05 04:30:52;;;;;;;10.20;7.65;;;6.20;99.90;;;;;;5029364;28;20107;-65
2023/12/05 04:33:18;;;;;;;13.18;7.88;;;6.20;99.90;;;;;;5029485;28;20070;-65
2023/12/05 04:35:45;;;;;;;10.57;8.32;;;6.20;99.90;;;;;;5029372;28;20046;-65
2023/12/05 04:38:12;;;;;;;16.95;9.07;;;6.20;99.90;;;;;;4996861;28;20261;-65
2023/12/05 04:40:39;;;;;;;11.80;8.43;;;6.30;99.90;;;;;;5029699;28;20119;-65
2023/12/05 04:43:06;;;;;;;13.30;9.38;;;6.20;99.90;;;;;;5030277;28;20104;-65
2023/12/05 04:45:33;;;;;;;14.80;9.40;;;6.20;99.90;;;;;;5026440;28;20056;-65
2023/12/05 04:47:59;;;;;;;14.25;8.90;;;6.20;99.90;;;;;;5027778;28;20041;-65
2023/12/05 04:50:26;;;;;;;12.23;9.30;;;6.20;99.90;;;;;;5029861;28;20057;-65
2023/12/05 04:52:53;;;;;;;15.90;8.77;;;6.20;99.90;;;;;;5030063;28;20531;-66
2023/12/05 04:55:20;;;;;;;12.32;9.00;;;6.10;99.90;;;;;;5030171;28;20053;-65
2023/12/05 04:57:47;;;;;;;13.13;10.20;;;6.20;99.90;;;;;;5029214;28;20042;-65
2023/12/05 05:00:14;;;;;;;11.48;9.25;;;6.20;99.90;;;;;;5029044;28;20071;-66
2023/12/05 05:02:41;;;;;;;15.68;9.00;;;6.20;99.90;;;;;;5028287;28;20088;-65
2023/12/05 05:05:08;;;;;;;13.63;8.95;;;6.30;99.90;;;;;;5028744;28;20053;-66
2023/12/05 05:07:35;;;;;;;14.43;9.02;;;6.20;99.90;;;;;;5027424;28;20125;-65
2023/12/05 05:10:02;;;;;;;11.57;9.60;;;6.30;99.90;;;;;;5029001;28;20072;-65
2023/12/05 05:12:29;;;;;;;18.30;10.25;;;6.20;99.90;;;;;;5028694;28;20594;-65
2023/12/05 05:14:56;;;;;;;13.85;9.65;;;6.20;99.90;;;;;;5025022;28;20124;-65
2023/12/05 05:17:23;;;;;;;12.60;9.13;;;6.30;99.90;;;;;;5028963;28;20056;-65
2023/12/05 05:19:50;;;;;;;15.05;10.13;;;6.30;99.90;;;;;;5008971;28;20183;-65
2023/12/05 05:22:17;;;;;;;15.05;10.25;;;6.30;99.90;;;;;;5027827;28;20041;-65
2023/12/05 05:24:43;;;;;;;13.85;9.65;;;6.20;99.90;;;;;;5028246;28;20049;-66
2023/12/05 05:27:11;;;;;;;14.88;10.18;;;6.20;99.90;;;;;;5027041;28;20049;-64
2023/12/05 05:29:38;;;;;;;14.07;10.27;;;6.20;99.90;;;;;;5026839;28;20041;-64
2023/12/05 05:32:05;;;;;;;13.68;10.80;;;6.20;99.90;;;;;;5028350;28;20052;-64
2023/12/05 05:34:32;;;;;;;13.05;9.68;;;6.30;99.90;;;;;;5026983;28;20041;-64
2023/12/05 05:36:59;;;;;;;13.95;10.68;;;6.20;99.90;;;;;;5028508;28;20496;-64
2023/12/05 05:39:26;;;;;;;14.00;9.38;;;6.20;99.90;;;;;;5027889;28;20050;-64
2023/12/05 05:41:52;;;;;;;17.55;10.77;;;6.20;99.90;;;;;;5028254;28;20531;-64
2023/12/05 05:44:19;;;;;;;13.40;9.35;;;6.20;99.90;;;;;;5027514;28;20053;-64
2023/12/05 05:46:46;;;;;;;14.52;9.93;;;6.20;99.90;;;;;;5026203;28;20049;-64
2023/12/05 05:49:13;;;;;;;12.73;9.82;;;6.20;99.90;;;;;;5026496;28;20096;-64
2023/12/05 05:51:40;;;;;;;11.48;8.95;;;6.20;99.90;;;;;;5028887;28;20244;-64
2023/12/05 05:54:07;;;;;;;15.82;9.18;;;6.20;99.90;;;;;;5031653;28;20047;-64
2023/12/05 05:56:39;;;;;;;16.60;9.32;;;6.20;99.90;;;;;;5020120;28;21050;-64
2023/12/05 05:59:06;;;;;;;14.02;9.20;;;6.20;99.90;;;;;;5026338;28;20041;-64
2023/12/05 06:01:33;;;;;;;11.70;8.90;;;6.20;99.90;;;;;;5027646;28;20037;-64
2023/12/05 06:04:00;;;;;;;11.65;8.40;;;6.20;99.90;;;;;;5027842;28;20041;-64
2023/12/05 06:06:27;;;;;;;11.93;8.60;;;6.20;99.90;;;;;;5027499;28;20042;-64
2023/12/05 06:08:55;;;;;;;12.52;9.48;;;6.20;99.90;;;;;;5025480;28;20075;-64
2023/12/05 06:11:22;;;;;;;13.95;9.25;;;6.20;99.90;;;;;;5028046;28;20045;-65
2023/12/05 06:13:49;;;;;;;12.57;10.02;;;6.20;99.90;;;;;;5027551;28;20050;-64
2023/12/05 06:16:16;;;;;;;11.70;8.60;;;6.20;99.90;;;;;;5027590;28;20049;-65
2023/12/05 06:18:43;;;;;;;10.60;8.55;;;6.20;99.90;;;;;;5027905;28;20042;-64
2023/12/05 06:21:09;;;;;;;12.20;8.85;;;6.20;99.90;;;;;;5027344;28;20099;-65
2023/12/05 06:23:38;;;;;;;10.27;8.60;;;6.30;99.90;;;;;;5027457;28;20049;-64
2023/12/05 06:26:05;;;;;;;13.05;9.63;;;6.20;99.90;;;;;;5023381;28;20092;-66
2023/12/05 06:28:32;;;;;;;12.52;9.40;;;6.30;99.90;;;;;;5023975;28;20125;-66
2023/12/05 06:30:59;;;;;;;12.98;9.30;;;6.20;99.90;;;;;;5009446;28;20305;-64
2023/12/05 06:33:26;;;;;;;14.20;9.32;;;6.30;99.90;;;;;;5026999;28;20091;-65
2023/12/05 06:35:53;;;;;;;14.63;8.95;;;6.20;99.90;;;;;;5019379;28;20103;-64
2023/12/05 06:38:21;;;;;;;10.77;7.97;;;6.20;99.90;;;;;;5023090;28;20045;-65
2023/12/05 06:40:48;;;;;;;10.07;7.93;;;6.30;99.90;;;;;;5027823;28;20060;-64
2023/12/05 06:43:14;;;;;;;11.63;8.25;;;6.30;99.90;;;;;;5022269;28;20107;-64
2023/12/05 06:45:41;;;;;;;10.57;8.48;;;6.20;99.90;;;;;;5019965;28;20112;-65
2023/12/05 06:48:08;;;;;;;16.45;8.60;;;6.20;99.90;;;;;;5022937;28;20103;-65
2023/12/05 06:50:35;;;;;;;16.13;9.88;;;6.20;99.90;;;;;;5008197;28;20072;-65
2023/12/05 06:53:02;;;;;;;13.35;9.32;;;6.20;99.90;;;;;;5022482;28;20069;-65
2023/12/05 06:55:29;;;;;;;12.88;8.82;;;6.20;99.90;;;;;;5026203;28;20055;-65
2023/12/05 06:57:56;;;;;;;11.73;9.02;;;6.20;99.90;;;;;;5004719;28;20064;-65
2023/12/05 07:00:25;;;;;;;11.18;9.02;;;6.20;99.90;;;;;;5029254;28;20048;-65
2023/12/05 07:02:52;;;;;;;13.43;8.55;;;6.30;99.90;;;;;;5025244;28;20136;-66
2023/12/05 07:05:19;;;;;;;11.88;8.98;;;6.20;99.90;;;;;;5001999;28;20049;-62
2023/12/05 07:07:46;;;;;;;11.05;8.23;;;6.20;99.90;;;;;;5024564;28;20038;-63
2023/12/05 07:10:13;;;;;;;10.52;8.10;;;6.30;99.90;;;;;;5015652;28;20243;-63
2023/12/05 07:12:40;;;;;;;12.65;9.00;;;6.30;99.90;;;;;;5005849;28;20046;-62
2023/12/05 07:15:08;;;;;;;13.57;9.05;;;6.30;99.90;;;;;;5017055;28;20057;-62
2023/12/05 07:17:37;;;;;;;11.90;8.82;;;6.30;99.90;;;;;;5027153;28;20045;-62
2023/12/05 07:20:05;;;;;;;12.35;8.45;;;6.30;99.90;;;;;;5015156;28;20515;-63
2023/12/05 07:22:32;;;;;;;11.45;8.63;;;6.30;99.90;;;;;;5020083;28;20046;-63
2023/12/05 07:24:59;;;;;;;12.43;9.07;;;6.20;99.90;;;;;;5008142;28;20041;-63
2023/12/05 07:27:26;;;;;;;11.18;8.15;;;6.20;99.90;;;;;;4992204;28;20045;-63
2023/12/05 07:29:52;;;;;;;16.90;8.88;;;6.20;99.90;;;;;;5020874;28;20054;-63
2023/12/05 07:32:20;;;;;;;14.63;10.00;;;6.30;99.90;;;;;;5030285;28;20140;-63
2023/12/05 07:34:49;;;;;;;12.95;8.70;;;6.30;99.90;;;;;;5027013;28;20048;-63
2023/12/05 07:37:17;;;;;;;11.20;7.90;;;6.30;99.90;;;;;;5022794;28;20050;-63
2023/12/05 07:39:43;;;;;;;12.80;8.50;;;6.30;99.90;;;;;;5026957;28;20409;-65
2023/12/05 07:42:10;;;;;;;12.30;8.77;;;6.30;99.90;;;;;;5019358;28;20046;-63
2023/12/05 07:44:37;;;;;;;11.38;7.55;;;6.30;99.90;;;;;;5025266;28;20107;-63
2023/12/05 07:47:07;;;;;;;13.85;9.60;;;6.30;99.90;;;;;;5018679;28;20099;-63
2023/12/05 07:49:34;;;;;;;12.90;9.43;;;6.30;99.90;;;;;;5026034;28;20053;-62
2023/12/05 07:52:04;;;;;;;9.48;7.57;;;6.30;99.90;;;;;;5008304;28;20455;-62
2023/12/05 07:54:31;;;;;;;11.40;7.70;;;6.30;99.90;;;;;;5006631;28;20049;-62
2023/12/05 07:56:58;;;;;;;14.57;7.53;;;6.30;99.90;;;;;;5021496;28;20481;-62
2023/12/05 07:59:24;;;;;;;15.18;8.38;;;6.20;99.90;;;;;;5023893;28;20085;-62
2023/12/05 08:01:52;;;;;;;13.00;7.88;;;6.20;99.90;;;;;;5011869;28;20053;-62
2023/12/05 08:04:19;;;;;;;14.48;8.40;;;6.20;99.90;;;;;;5007632;28;20185;-61
2023/12/05 08:06:47;;;;;;;12.15;8.15;;;6.20;99.90;;;;;;5021833;28;20068;-62
2023/12/05 08:09:14;;;;;;;12.77;8.25;;;6.30;99.90;;;;;;5027356;28;20273;-62
2023/12/05 08:11:41;;;;;;;11.90;9.07;;;6.20;99.90;;;;;;5019245;28;20060;-61
2023/12/05 08:14:08;;;;;;;12.70;7.65;;;6.30;99.90;;;;;;5025479;28;20041;-61
2023/12/05 08:16:35;;;;;;;11.20;8.30;;;6.30;99.90;;;;;;5020916;28;20061;-62
2023/12/05 08:19:02;;;;;;;14.30;8.93;;;6.30;99.90;;;;;;4997771;28;20049;-63
2023/12/05 08:21:29;;;;;;;15.50;8.63;;;6.30;99.90;;;;;;5028827;28;20076;-62
2023/12/05 08:23:56;;;;;;;12.10;8.77;;;6.30;99.90;;;;;;5030036;28;20448;-62
2023/12/05 08:26:22;;;;;;;13.40;7.07;;;6.50;99.90;;;;;;5025813;28;20104;-62
2023/12/05 08:28:49;;;;;;;13.95;8.45;;;6.20;99.90;;;;;;5023696;28;20041;-62
2023/12/05 08:31:16;;;;;;;12.52;9.13;;;6.30;99.90;;;;;;5027184;28;20057;-62
2023/12/05 08:33:43;;;;;;;11.90;8.50;;;6.20;99.90;;;;;;5028334;28;20051;-62
2023/12/05 08:36:10;;;;;;;12.20;8.27;;;6.20;99.90;;;;;;5029766;28;20047;-62
2023/12/05 08:38:37;;;;;;;16.65;8.32;;;6.20;99.90;;;;;;5021866;28;20049;-62
2023/12/05 08:41:05;;;;;;;13.40;8.43;;;6.20;99.90;;;;;;4707998;23;21804;-68
2023/12/05 08:43:32;;;;;;;12.82;8.50;;;6.20;99.90;;;;;;4991374;23;20057;-68
2023/12/05 08:46:00;;;;;;;13.68;8.50;;;6.20;99.90;;;;;;5008391;28;20050;-68
2023/12/05 08:48:28;;;;;;;11.95;8.13;;;6.20;99.90;;;;;;5004937;28;20057;-68
2023/12/05 08:50:55;;;;;;;18.83;8.07;;;6.20;99.90;;;;;;5008087;28;20092;-69
2023/12/05 08:53:22;;;;;;;16.55;8.70;;;6.20;99.90;;;;;;5008419;28;20046;-68
2023/12/05 08:55:48;;;;;;;11.40;7.82;;;6.20;99.90;;;;;;5008553;28;20054;-68
2023/12/05 08:58:16;;;;;;;14.85;9.95;;;6.20;99.90;;;;;;5006616;28;20053;-69
2023/12/05 09:00:42;;;;;;;16.25;8.82;;;6.30;99.90;;;;;;4990836;28;20074;-68
2023/12/05 09:03:09;;;;;;;13.45;8.95;;;6.30;99.90;;;;;;5005880;28;20053;-68
2023/12/05 09:05:36;;;;;;;15.23;9.10;;;6.20;99.90;;;;;;5007572;28;20531;-68
2023/12/05 09:08:04;;;;;;;16.52;9.02;;;6.30;99.90;;;;;;4985424;28;20081;-68
2023/12/05 09:10:31;;;;;;;14.43;8.18;;;6.30;99.90;;;;;;4986648;28;20058;-68
2023/12/05 09:12:58;;;;;;;14.77;9.70;;;6.30;99.90;;;;;;5006479;28;20125;-68
2023/12/05 09:15:25;;;;;;;14.68;9.15;;;6.30;99.90;;;;;;5006333;28;20140;-68
2023/12/05 09:17:52;;;;;;;13.82;9.23;;;6.30;99.90;;;;;;5005928;28;20060;-68
2023/12/05 09:20:19;;;;;;;14.45;8.75;;;6.30;99.90;;;;;;5006479;28;20579;-68
2023/12/05 09:22:46;;;;;;;15.50;9.45;;;6.30;99.90;;;;;;5008493;28;20042;-68
2023/12/05 09:25:13;;;;;;;12.80;7.53;;;6.30;99.90;;;;;;5007851;28;20133;-69
2023/12/05 09:27:39;;;;;;;20.38;8.85;;;6.40;99.90;;;;;;5007386;28;20159;-69
2023/12/05 09:30:07;;;;;;;18.13;9.85;;;6.40;99.90;;;;;;5007546;28;20089;-69
2023/12/05 09:32:33;;;;;;;15.40;7.97;;;6.40;99.90;;;;;;5007879;28;20487;-69
2023/12/05 09:35:00;;;;;;;12.57;8.27;;;6.30;99.90;;;;;;4999591;28;20548;-68
2023/12/05 09:37:28;;;;;;;13.65;7.63;;;6.30;99.90;;;;;;5007789;28;20077;-68
2023/12/05 09:39:55;;;;;;;14.02;9.23;;;6.30;99.90;;;;;;5001745;28;20049;-68
2023/12/05 09:42:23;;;;;;;15.88;8.50;;;6.30;99.90;;;;;;5007118;28;20046;-68
2023/12/05 09:44:50;;;;;;;14.05;8.35;;;6.20;99.90;;;;;;5006256;28;20535;-68
2023/12/05 09:47:20;;;;;;;12.05;7.28;;;6.30;99.90;;;;;;4989304;28;20453;-68
2023/12/05 09:49:48;;;;;;;16.67;8.15;;;6.20;99.90;;;;;;5007564;28;20046;-69
2023/12/05 09:52:15;;;;;;;14.52;8.52;;;6.30;99.90;;;;;;5006323;28;20046;-68
2023/12/05 09:54:43;;;;;;;14.65;8.10;;;6.30;99.90;;;;;;5007342;28;20742;-68
2023/12/05 09:57:14;;;;;;;12.55;7.65;;;6.40;99.90;;;;;;5007180;28;20122;-69
2023/12/05 09:59:40;;;;;;;12.60;8.23;;;6.40;99.90;;;;;;5006717;28;20128;-68
2023/12/05 10:02:08;;;;;;;10.70;7.43;;;6.40;99.90;;;;;;5007083;28;20080;-71
2023/12/05 10:04:43;;;;;;;15.07;8.75;;;6.40;99.90;;;;;;5006152;28;20196;-68
2023/12/05 10:07:13;;;;;;;13.38;8.02;;;6.40;99.90;;;;;;5005908;28;20103;-69
2023/12/05 10:09:42;;;;;;;16.58;7.03;;;6.40;99.90;;;;;;5002626;28;20096;-69
2023/12/05 10:12:10;;;;;;;14.13;6.80;;;6.40;99.90;;;;;;4988314;28;20423;-68
2023/12/05 10:14:37;;;;;;;12.82;6.70;;;6.40;99.90;;;;;;5006785;28;20046;-68
2023/12/05 10:17:05;;;;;;;13.15;7.45;;;6.30;99.90;;;;;;5007026;28;20402;-68
2023/12/05 10:19:32;;;;;;;10.68;6.30;;;6.40;99.90;;;;;;5005966;28;20132;-68
2023/12/05 10:21:59;;;;;;;14.95;7.43;;;6.30;99.90;;;;;;5007044;28;20654;-68
2023/12/05 10:24:42;;;;;;;17.50;7.38;;;6.40;99.90;;;;;;5006676;28;20392;-68
2023/12/05 10:27:12;;;;;;;13.07;8.43;;;6.40;99.90;;;;;;5007049;28;20132;-70
2023/12/05 10:29:40;;;;;;;12.77;7.10;;;6.40;99.90;;;;;;5001008;28;20069;-67
2023/12/05 10:32:10;;;;;;;12.82;7.78;;;6.30;99.90;;;;;;5006798;28;20064;-68
2023/12/05 10:34:51;;;;;;;22.88;8.35;;;6.40;99.90;;;;;;5005542;28;20045;-69
2023/12/05 10:37:23;;;;;;;16.90;8.80;;;6.40;99.90;;;;;;5006874;28;20128;-68
2023/12/05 10:39:50;;;;;;;16.05;7.50;;;6.50;99.90;;;;;;5006673;28;20069;-68
2023/12/05 10:42:19;;;;;;;15.00;7.68;;;6.50;99.90;;;;;;5007159;28;20080;-68
2023/12/05 10:44:46;;;;;;;16.98;8.05;;;6.50;99.90;;;;;;5003919;28;20102;-69
2023/12/05 10:47:13;;;;;;;14.85;7.78;;;6.50;99.90;;;;;;5007554;28;20091;-70
2023/12/05 10:49:42;;;;;;;12.25;8.23;;;6.60;99.90;;;;;;5005437;28;20086;-69
2023/12/05 10:52:11;;;;;;;16.40;7.95;;;6.60;99.90;;;;;;4973028;28;20177;-69
2023/12/05 10:54:41;;;;;;;14.50;8.40;;;6.60;99.90;;;;;;4988087;28;20069;-69
2023/12/05 10:57:11;;;;;;;18.00;7.22;;;6.60;99.90;;;;;;5005975;28;20306;-68
2023/12/05 10:59:39;;;;;;;10.75;6.70;;;6.70;99.90;;;;;;4979946;28;20495;-70
2023/12/05 11:02:13;;;;;;;17.98;7.38;;;6.70;99.90;;;;;;5006999;28;20053;-69
2023/12/05 11:04:41;;;;;;;18.05;7.85;;;6.70;99.90;;;;;;5010476;28;20129;-69
2023/12/05 11:07:09;;;;;;;14.45;7.32;;;6.70;99.90;;;;;;5009112;28;20073;-68
2023/12/05 11:09:36;;;;;;;16.15;9.07;;;6.70;99.90;;;;;;5009316;28;20061;-68
2023/12/05 11:12:05;;;;;;;12.57;8.23;;;6.70;99.90;;;;;;5010676;28;20085;-68
2023/12/05 11:14:37;;;;;;;19.35;7.20;;;6.70;99.90;;;;;;5010616;28;20108;-69
2023/12/05 11:17:05;;;;;;;10.25;6.70;;;6.70;99.90;;;;;;5010209;28;20042;-69
2023/12/05 11:19:53;;;;;;;13.05;6.82;;;6.70;99.90;;;;;;5009217;28;20042;-69
2023/12/05 11:22:39;;;;;;;14.88;7.57;;;6.60;99.90;;;;;;5007796;28;20501;-69
2023/12/05 11:25:27;;;;;;;13.30;6.28;;;6.50;99.90;;;;;;5008888;28;20049;-69
2023/12/05 11:28:31;;;;;;;17.25;6.40;;;6.50;99.90;;;;;;5010500;28;20120;-69
2023/12/05 11:31:13;;;;;;;14.93;6.22;;;6.60;99.90;;;;;;4988895;28;20100;-69
2023/12/05 11:33:50;;;;;;;14.18;5.72;;;6.60;99.90;;;;;;5009056;28;20050;-68
2023/12/05 11:36:29;;;;;;;13.60;5.68;;;6.60;99.90;;;;;;5009272;28;20041;-68
2023/12/05 11:38:56;;;;;;;15.82;5.28;;;6.60;99.90;;;;;;4987549;28;20048;-67
2023/12/05 11:41:24;;;;;;;11.20;5.50;;;6.60;99.90;;;;;;5007765;28;20045;-68
2023/12/05 11:44:13;;;;;;;13.75;5.35;;;6.50;99.90;;;;;;5008948;28;20092;-68
2023/12/05 11:46:43;;;;;;;8.00;5.53;;;6.60;99.90;;;;;;5009468;28;20135;-69
2023/12/05 11:49:10;;;;;;;12.82;5.47;;;6.60;99.90;;;;;;5010086;28;20867;-69
2023/12/05 11:51:37;;;;;;;11.60;5.63;;;6.60;99.90;;;;;;5009305;28;20745;-69
2023/12/05 11:54:07;;;;;;;13.35;5.78;;;6.70;99.90;;;;;;5010169;28;20041;-70
2023/12/05 11:56:34;;;;;;;13.00;6.35;;;6.70;99.90;;;;;;5008282;28;20544;-69
2023/12/05 11:59:16;;;;;;;13.23;5.95;;;6.70;99.90;;;;;;5008891;28;20038;-67
2023/12/05 12:01:44;;;;;;;16.58;6.38;;;6.80;99.90;;;;;;5007557;28;20480;-68
2023/12/05 12:04:23;;;;;;;16.67;6.03;;;6.80;99.90;;;;;;5008812;28;20069;-68
2023/12/05 12:06:50;;;;;;;14.13;5.97;;;6.80;99.90;;;;;;5007465;28;20050;-68
2023/12/05 12:09:17;;;;;;;14.20;5.93;;;6.80;99.90;;;;;;5009779;28;20092;-68
2023/12/05 12:11:44;;;;;;;21.58;6.43;;;6.90;99.90;;;;;;5005985;28;20065;-68
2023/12/05 12:14:15;;;;;;;12.63;5.90;;;6.90;99.90;;;;;;5008428;28;20065;-68
2023/12/05 12:16:42;;;;;;;13.75;5.95;;;6.90;99.90;;;;;;5008077;28;20050;-68
2023/12/05 12:19:12;;;;;;;15.80;5.22;;;6.90;99.90;;;;;;5009872;28;20123;-68
2023/12/05 12:21:39;;;;;;;11.88;5.13;;;6.80;99.90;;;;;;5008989;28;20340;-68
2023/12/05 12:24:07;;;;;;;17.05;5.43;;;6.90;99.90;;;;;;4992065;28;20046;-68
2023/12/05 12:26:34;;;;;;;15.93;6.57;;;6.90;99.90;;;;;;5009169;28;20104;-68
2023/12/05 12:29:08;;;;;;;13.50;6.30;;;6.90;99.90;;;;;;5009669;28;20049;-68
2023/12/05 12:31:35;;;;;;;11.65;5.22;;;6.90;99.90;;;;;;5009206;28;20041;-67
2023/12/05 12:34:08;;;;;;;10.25;5.32;;;7.00;99.90;;;;;;5009191;28;20488;-67
2023/12/05 12:36:37;;;;;;;17.38;5.68;;;7.00;99.90;;;;;;5006525;28;20136;-68
2023/12/05 12:39:04;;;;;;;17.92;4.78;;;7.00;99.90;;;;;;5004784;28;20492;-68
2023/12/05 12:41:31;;;;;;;15.48;4.80;;;7.00;99.90;;;;;;5009895;28;20065;-68
2023/12/05 12:43:58;;;;;;;11.30;5.18;;;7.10;99.90;;;;;;5006439;28;20050;-68
2023/12/05 12:46:25;;;;;;;14.05;5.60;;;7.00;99.90;;;;;;5008984;28;20050;-68
2023/12/05 12:48:52;;;;;;;9.73;4.93;;;7.00;99.90;;;;;;5008178;28;20054;-68
2023/12/05 12:51:18;;;;;;;12.07;4.65;;;7.10;99.90;;;;;;5009344;28;20299;-68
2023/12/05 12:53:46;;;;;;;13.80;4.88;;;7.10;99.90;;;;;;5007532;28;20082;-69